sensor_id;sensor_type;location;lat;lon;timestamp;temperature;humidity
74294;DHT22;64044;59.904;10.738;2023-08-06T00:02:14;17.60;66.10
74294;DHT22;64044;59.904;10.738;2023-08-06T00:04:39;17.60;65.90
74294;DHT22;64044;59.904;10.738;2023-08-06T00:07:05;17.60;66.00
74294;DHT22;64044;59.904;10.738;2023-08-06T00:09:31;17.50;66.10
74294;DHT22;64044;59.904;10.738;2023-08-06T00:11:56;17.50;67.00
74294;DHT22;64044;59.904;10.738;2023-08-06T00:14:23;17.50;66.30
74294;DHT22;64044;59.904;10.738;2023-08-06T00:16:48;17.50;66.40
74294;DHT22;64044;59.904;10.738;2023-08-06T00:19:14;17.40;66.40
74294;DHT22;64044;59.904;10.738;2023-08-06T00:21:40;17.40;66.50
74294;DHT22;64044;59.904;10.738;2023-08-06T00:24:05;17.40;66.50
74294;DHT22;64044;59.904;10.738;2023-08-06T00:26:31;17.40;66.40
74294;DHT22;64044;59.904;10.738;2023-08-06T00:28:57;17.40;66.50
74294;DHT22;64044;59.904;10.738;2023-08-06T00:31:22;17.30;66.50
74294;DHT22;64044;59.904;10.738;2023-08-06T00:33:48;17.30;66.60
74294;DHT22;64044;59.904;10.738;2023-08-06T00:36:14;17.30;66.70
74294;DHT22;64044;59.904;10.738;2023-08-06T00:38:39;17.20;66.90
74294;DHT22;64044;59.904;10.738;2023-08-06T00:41:05;17.20;67.20
74294;DHT22;64044;59.904;10.738;2023-08-06T00:43:31;17.20;67.30
74294;DHT22;64044;59.904;10.738;2023-08-06T00:45:56;17.20;67.30
74294;DHT22;64044;59.904;10.738;2023-08-06T00:48:22;17.20;67.40
74294;DHT22;64044;59.904;10.738;2023-08-06T00:50:48;17.20;67.60
74294;DHT22;64044;59.904;10.738;2023-08-06T00:53:14;17.20;67.60
74294;DHT22;64044;59.904;10.738;2023-08-06T00:55:40;17.20;67.60
74294;DHT22;64044;59.904;10.738;2023-08-06T00:58:05;17.20;67.90
74294;DHT22;64044;59.904;10.738;2023-08-06T01:00:31;17.20;67.70
74294;DHT22;64044;59.904;10.738;2023-08-06T01:02:57;17.20;67.60
74294;DHT22;64044;59.904;10.738;2023-08-06T01:05:23;17.20;67.70
74294;DHT22;64044;59.904;10.738;2023-08-06T01:11:19;17.20;68.30
74294;DHT22;64044;59.904;10.738;2023-08-06T01:13:50;17.30;68.50
74294;DHT22;64044;59.904;10.738;2023-08-06T01:16:18;17.30;67.70
74294;DHT22;64044;59.904;10.738;2023-08-06T01:18:44;17.30;67.70
74294;DHT22;64044;59.904;10.738;2023-08-06T01:21:13;17.30;67.70
74294;DHT22;64044;59.904;10.738;2023-08-06T01:23:39;17.30;67.60
74294;DHT22;64044;59.904;10.738;2023-08-06T01:31:39;17.30;67.50
74294;DHT22;64044;59.904;10.738;2023-08-06T01:34:07;17.30;68.20
74294;DHT22;64044;59.904;10.738;2023-08-06T01:36:35;17.30;67.60
74294;DHT22;64044;59.904;10.738;2023-08-06T01:39:01;17.40;67.70
74294;DHT22;64044;59.904;10.738;2023-08-06T01:41:27;17.30;67.70
74294;DHT22;64044;59.904;10.738;2023-08-06T01:43:53;17.40;67.70
74294;DHT22;64044;59.904;10.738;2023-08-06T01:46:18;17.40;67.70
74294;DHT22;64044;59.904;10.738;2023-08-06T01:48:44;17.40;67.70
74294;DHT22;64044;59.904;10.738;2023-08-06T01:51:10;17.40;67.70
74294;DHT22;64044;59.904;10.738;2023-08-06T01:53:35;17.40;67.80
74294;DHT22;64044;59.904;10.738;2023-08-06T01:56:01;17.40;67.70
74294;DHT22;64044;59.904;10.738;2023-08-06T01:58:27;17.40;67.70
74294;DHT22;64044;59.904;10.738;2023-08-06T02:00:53;17.40;67.80
74294;DHT22;64044;59.904;10.738;2023-08-06T02:03:18;17.40;67.90
74294;DHT22;64044;59.904;10.738;2023-08-06T02:05:44;17.40;67.90
74294;DHT22;64044;59.904;10.738;2023-08-06T02:08:11;17.40;67.90
74294;DHT22;64044;59.904;10.738;2023-08-06T02:10:37;17.40;68.00
74294;DHT22;64044;59.904;10.738;2023-08-06T02:13:02;17.40;68.00
74294;DHT22;64044;59.904;10.738;2023-08-06T02:15:28;17.50;67.90
74294;DHT22;64044;59.904;10.738;2023-08-06T02:17:54;17.50;67.90
74294;DHT22;64044;59.904;10.738;2023-08-06T02:20:19;17.50;68.00
74294;DHT22;64044;59.904;10.738;2023-08-06T02:22:45;17.50;67.90
74294;DHT22;64044;59.904;10.738;2023-08-06T02:25:11;17.50;67.80
74294;DHT22;64044;59.904;10.738;2023-08-06T02:27:37;17.50;67.70
74294;DHT22;64044;59.904;10.738;2023-08-06T02:30:04;17.50;67.60
74294;DHT22;64044;59.904;10.738;2023-08-06T02:32:30;17.50;67.50
74294;DHT22;64044;59.904;10.738;2023-08-06T02:34:57;17.50;67.50
74294;DHT22;64044;59.904;10.738;2023-08-06T02:37:23;17.50;67.60
74294;DHT22;64044;59.904;10.738;2023-08-06T02:39:48;17.50;67.60
74294;DHT22;64044;59.904;10.738;2023-08-06T02:42:14;17.50;67.50
74294;DHT22;64044;59.904;10.738;2023-08-06T02:44:40;17.50;67.60
74294;DHT22;64044;59.904;10.738;2023-08-06T02:47:06;17.50;67.60
74294;DHT22;64044;59.904;10.738;2023-08-06T02:49:31;17.50;67.70
74294;DHT22;64044;59.904;10.738;2023-08-06T02:51:57;17.50;67.70
74294;DHT22;64044;59.904;10.738;2023-08-06T02:54:23;17.50;67.70
74294;DHT22;64044;59.904;10.738;2023-08-06T02:56:48;17.50;67.60
74294;DHT22;64044;59.904;10.738;2023-08-06T02:59:14;17.50;67.70
74294;DHT22;64044;59.904;10.738;2023-08-06T03:01:40;17.50;67.60
74294;DHT22;64044;59.904;10.738;2023-08-06T03:04:06;17.50;67.50
74294;DHT22;64044;59.904;10.738;2023-08-06T03:06:31;17.50;67.50
74294;DHT22;64044;59.904;10.738;2023-08-06T03:08:57;17.50;68.30
74294;DHT22;64044;59.904;10.738;2023-08-06T03:11:23;17.50;67.60
74294;DHT22;64044;59.904;10.738;2023-08-06T03:13:49;17.50;67.60
74294;DHT22;64044;59.904;10.738;2023-08-06T03:16:15;17.50;67.70
74294;DHT22;64044;59.904;10.738;2023-08-06T03:18:40;17.50;67.80
74294;DHT22;64044;59.904;10.738;2023-08-06T03:21:06;17.50;67.80
74294;DHT22;64044;59.904;10.738;2023-08-06T03:23:32;17.50;67.80
74294;DHT22;64044;59.904;10.738;2023-08-06T03:26:02;17.50;67.90
74294;DHT22;64044;59.904;10.738;2023-08-06T03:28:28;17.50;68.00
74294;DHT22;64044;59.904;10.738;2023-08-06T03:31:01;17.50;67.90
74294;DHT22;64044;59.904;10.738;2023-08-06T03:33:27;17.50;68.20
74294;DHT22;64044;59.904;10.738;2023-08-06T03:35:53;17.40;67.90
74294;DHT22;64044;59.904;10.738;2023-08-06T03:38:19;17.50;67.90
74294;DHT22;64044;59.904;10.738;2023-08-06T03:40:46;17.50;67.90
74294;DHT22;64044;59.904;10.738;2023-08-06T03:43:12;17.50;68.00
74294;DHT22;64044;59.904;10.738;2023-08-06T03:45:37;17.50;68.00
74294;DHT22;64044;59.904;10.738;2023-08-06T03:48:03;17.50;68.00
74294;DHT22;64044;59.904;10.738;2023-08-06T03:50:29;17.50;68.00
74294;DHT22;64044;59.904;10.738;2023-08-06T03:52:55;17.50;67.90
74294;DHT22;64044;59.904;10.738;2023-08-06T03:55:21;17.50;67.90
74294;DHT22;64044;59.904;10.738;2023-08-06T03:57:47;17.50;67.80
74294;DHT22;64044;59.904;10.738;2023-08-06T04:00:13;17.50;67.70
74294;DHT22;64044;59.904;10.738;2023-08-06T04:02:39;17.50;67.80
74294;DHT22;64044;59.904;10.738;2023-08-06T04:05:04;17.60;67.80
74294;DHT22;64044;59.904;10.738;2023-08-06T04:07:30;17.60;67.80
74294;DHT22;64044;59.904;10.738;2023-08-06T04:10:01;17.60;67.80
74294;DHT22;64044;59.904;10.738;2023-08-06T04:12:27;17.60;68.00
74294;DHT22;64044;59.904;10.738;2023-08-06T04:14:53;17.60;67.70
74294;DHT22;64044;59.904;10.738;2023-08-06T04:17:20;17.60;67.80
74294;DHT22;64044;59.904;10.738;2023-08-06T04:19:55;17.60;67.80
74294;DHT22;64044;59.904;10.738;2023-08-06T04:22:24;17.60;68.10
74294;DHT22;64044;59.904;10.738;2023-08-06T04:24:50;17.60;67.80
74294;DHT22;64044;59.904;10.738;2023-08-06T04:27:17;17.60;67.80
74294;DHT22;64044;59.904;10.738;2023-08-06T04:29:43;17.60;67.80
74294;DHT22;64044;59.904;10.738;2023-08-06T04:32:09;17.70;67.80
74294;DHT22;64044;59.904;10.738;2023-08-06T04:34:36;17.70;67.90
74294;DHT22;64044;59.904;10.738;2023-08-06T04:37:03;17.70;67.80
74294;DHT22;64044;59.904;10.738;2023-08-06T04:39:29;17.70;67.90
74294;DHT22;64044;59.904;10.738;2023-08-06T04:41:58;17.70;67.90
74294;DHT22;64044;59.904;10.738;2023-08-06T04:44:23;17.70;68.00
74294;DHT22;64044;59.904;10.738;2023-08-06T04:46:49;17.70;67.90
74294;DHT22;64044;59.904;10.738;2023-08-06T04:49:15;17.70;67.90
74294;DHT22;64044;59.904;10.738;2023-08-06T04:51:41;17.70;67.80
74294;DHT22;64044;59.904;10.738;2023-08-06T04:54:07;17.70;67.80
74294;DHT22;64044;59.904;10.738;2023-08-06T04:56:32;17.70;67.80
74294;DHT22;64044;59.904;10.738;2023-08-06T04:58:59;17.80;67.90
74294;DHT22;64044;59.904;10.738;2023-08-06T05:01:25;17.80;67.90
74294;DHT22;64044;59.904;10.738;2023-08-06T05:03:51;17.80;67.80
74294;DHT22;64044;59.904;10.738;2023-08-06T05:06:16;17.80;67.70
74294;DHT22;64044;59.904;10.738;2023-08-06T05:08:42;17.80;67.60
74294;DHT22;64044;59.904;10.738;2023-08-06T05:11:08;17.80;67.60
74294;DHT22;64044;59.904;10.738;2023-08-06T05:13:34;17.80;67.60
74294;DHT22;64044;59.904;10.738;2023-08-06T05:16:00;17.90;67.60
74294;DHT22;64044;59.904;10.738;2023-08-06T05:18:25;17.90;67.50
74294;DHT22;64044;59.904;10.738;2023-08-06T05:20:51;17.90;67.50
74294;DHT22;64044;59.904;10.738;2023-08-06T05:23:17;17.90;67.50
74294;DHT22;64044;59.904;10.738;2023-08-06T05:25:42;17.90;67.30
74294;DHT22;64044;59.904;10.738;2023-08-06T05:28:33;17.90;67.30
74294;DHT22;64044;59.904;10.738;2023-08-06T05:31:03;18.00;67.20
74294;DHT22;64044;59.904;10.738;2023-08-06T05:33:29;18.00;67.80
74294;DHT22;64044;59.904;10.738;2023-08-06T05:35:55;18.00;67.00
74294;DHT22;64044;59.904;10.738;2023-08-06T05:38:20;18.00;67.00
74294;DHT22;64044;59.904;10.738;2023-08-06T05:40:46;18.00;66.90
74294;DHT22;64044;59.904;10.738;2023-08-06T05:43:12;18.10;66.90
74294;DHT22;64044;59.904;10.738;2023-08-06T05:45:37;18.00;66.70
74294;DHT22;64044;59.904;10.738;2023-08-06T05:48:03;18.10;66.70
74294;DHT22;64044;59.904;10.738;2023-08-06T05:50:29;18.10;66.80
74294;DHT22;64044;59.904;10.738;2023-08-06T05:52:55;18.10;66.90
74294;DHT22;64044;59.904;10.738;2023-08-06T05:55:20;18.10;66.90
74294;DHT22;64044;59.904;10.738;2023-08-06T05:57:49;18.20;66.90
74294;DHT22;64044;59.904;10.738;2023-08-06T06:00:17;18.20;66.90
74294;DHT22;64044;59.904;10.738;2023-08-06T06:02:44;18.20;66.80
74294;DHT22;64044;59.904;10.738;2023-08-06T06:05:09;18.30;66.50
74294;DHT22;64044;59.904;10.738;2023-08-06T06:07:35;18.30;66.60
74294;DHT22;64044;59.904;10.738;2023-08-06T06:10:01;18.40;66.70
74294;DHT22;64044;59.904;10.738;2023-08-06T06:12:27;18.40;66.50
74294;DHT22;64044;59.904;10.738;2023-08-06T06:14:52;18.40;66.30
74294;DHT22;64044;59.904;10.738;2023-08-06T06:17:18;18.50;66.30
74294;DHT22;64044;59.904;10.738;2023-08-06T06:19:44;18.50;66.30
74294;DHT22;64044;59.904;10.738;2023-08-06T06:22:09;18.60;66.30
74294;DHT22;64044;59.904;10.738;2023-08-06T06:24:35;18.60;66.20
74294;DHT22;64044;59.904;10.738;2023-08-06T06:27:01;18.70;66.10
74294;DHT22;64044;59.904;10.738;2023-08-06T06:29:26;18.80;65.80
74294;DHT22;64044;59.904;10.738;2023-08-06T06:31:52;18.70;65.50
74294;DHT22;64044;59.904;10.738;2023-08-06T06:34:18;18.80;65.40
74294;DHT22;64044;59.904;10.738;2023-08-06T06:36:43;18.90;65.30
74294;DHT22;64044;59.904;10.738;2023-08-06T06:39:09;18.90;65.00
74294;DHT22;64044;59.904;10.738;2023-08-06T06:41:35;19.00;64.90
74294;DHT22;64044;59.904;10.738;2023-08-06T06:44:00;19.00;64.70
74294;DHT22;64044;59.904;10.738;2023-08-06T06:46:26;19.00;64.50
74294;DHT22;64044;59.904;10.738;2023-08-06T06:48:52;19.00;64.50
74294;DHT22;64044;59.904;10.738;2023-08-06T06:51:17;19.00;64.30
74294;DHT22;64044;59.904;10.738;2023-08-06T06:53:43;19.10;64.20
74294;DHT22;64044;59.904;10.738;2023-08-06T06:56:09;19.00;64.10
74294;DHT22;64044;59.904;10.738;2023-08-06T06:58:35;19.10;64.20
74294;DHT22;64044;59.904;10.738;2023-08-06T07:01:00;19.10;64.20
74294;DHT22;64044;59.904;10.738;2023-08-06T07:03:26;19.10;64.20
74294;DHT22;64044;59.904;10.738;2023-08-06T07:05:57;19.10;64.10
74294;DHT22;64044;59.904;10.738;2023-08-06T07:08:24;19.10;63.90
74294;DHT22;64044;59.904;10.738;2023-08-06T07:10:49;19.10;64.00
74294;DHT22;64044;59.904;10.738;2023-08-06T07:13:15;19.10;63.90
74294;DHT22;64044;59.904;10.738;2023-08-06T07:15:42;19.20;64.00
74294;DHT22;64044;59.904;10.738;2023-08-06T07:18:07;19.20;63.80
74294;DHT22;64044;59.904;10.738;2023-08-06T07:20:33;19.30;63.90
74294;DHT22;64044;59.904;10.738;2023-08-06T07:23:00;19.30;64.00
74294;DHT22;64044;59.904;10.738;2023-08-06T07:25:26;19.40;64.00
74294;DHT22;64044;59.904;10.738;2023-08-06T07:27:51;19.50;64.10
74294;DHT22;64044;59.904;10.738;2023-08-06T07:30:17;19.50;64.00
74294;DHT22;64044;59.904;10.738;2023-08-06T07:32:43;19.70;63.80
74294;DHT22;64044;59.904;10.738;2023-08-06T07:35:08;19.80;63.60
74294;DHT22;64044;59.904;10.738;2023-08-06T07:37:38;19.90;63.30
74294;DHT22;64044;59.904;10.738;2023-08-06T07:40:05;20.00;63.10
74294;DHT22;64044;59.904;10.738;2023-08-06T07:42:31;20.10;62.70
74294;DHT22;64044;59.904;10.738;2023-08-06T07:44:58;20.20;62.50
74294;DHT22;64044;59.904;10.738;2023-08-06T07:47:24;20.30;62.10
74294;DHT22;64044;59.904;10.738;2023-08-06T07:49:50;20.50;61.80
74294;DHT22;64044;59.904;10.738;2023-08-06T07:52:16;20.60;61.50
74294;DHT22;64044;59.904;10.738;2023-08-06T07:54:42;20.70;61.00
74294;DHT22;64044;59.904;10.738;2023-08-06T07:57:07;20.80;60.50
74294;DHT22;64044;59.904;10.738;2023-08-06T07:59:33;20.90;60.10
74294;DHT22;64044;59.904;10.738;2023-08-06T08:02:00;21.00;59.80
74294;DHT22;64044;59.904;10.738;2023-08-06T08:04:26;21.10;59.40
74294;DHT22;64044;59.904;10.738;2023-08-06T08:06:52;21.20;59.20
74294;DHT22;64044;59.904;10.738;2023-08-06T08:09:17;21.20;58.90
74294;DHT22;64044;59.904;10.738;2023-08-06T08:11:43;21.30;58.80
74294;DHT22;64044;59.904;10.738;2023-08-06T08:14:09;21.30;58.70
74294;DHT22;64044;59.904;10.738;2023-08-06T08:16:35;21.40;58.70
74294;DHT22;64044;59.904;10.738;2023-08-06T08:19:00;21.40;58.50
74294;DHT22;64044;59.904;10.738;2023-08-06T08:21:27;21.50;58.90
74294;DHT22;64044;59.904;10.738;2023-08-06T08:23:52;21.50;58.10
74294;DHT22;64044;59.904;10.738;2023-08-06T08:26:18;21.60;58.00
74294;DHT22;64044;59.904;10.738;2023-08-06T08:28:44;21.70;58.00
74294;DHT22;64044;59.904;10.738;2023-08-06T08:31:10;21.80;57.70
74294;DHT22;64044;59.904;10.738;2023-08-06T08:33:39;21.80;57.40
74294;DHT22;64044;59.904;10.738;2023-08-06T08:36:04;21.80;57.00
74294;DHT22;64044;59.904;10.738;2023-08-06T08:38:30;21.80;56.80
74294;DHT22;64044;59.904;10.738;2023-08-06T08:40:56;21.90;56.30
74294;DHT22;64044;59.904;10.738;2023-08-06T08:43:22;22.00;56.20
74294;DHT22;64044;59.904;10.738;2023-08-06T08:45:52;22.00;56.20
74294;DHT22;64044;59.904;10.738;2023-08-06T08:48:20;22.00;55.70
74294;DHT22;64044;59.904;10.738;2023-08-06T08:50:48;22.00;55.70
74294;DHT22;64044;59.904;10.738;2023-08-06T08:53:15;22.00;55.40
74294;DHT22;64044;59.904;10.738;2023-08-06T08:55:43;22.00;54.70
74294;DHT22;64044;59.904;10.738;2023-08-06T08:58:10;22.00;54.50
74294;DHT22;64044;59.904;10.738;2023-08-06T09:00:36;22.00;54.90
74294;DHT22;64044;59.904;10.738;2023-08-06T09:03:02;22.00;55.50
74294;DHT22;64044;59.904;10.738;2023-08-06T09:05:32;22.00;54.70
74294;DHT22;64044;59.904;10.738;2023-08-06T09:08:02;22.00;53.90
74294;DHT22;64044;59.904;10.738;2023-08-06T09:10:28;22.00;53.30
74294;DHT22;64044;59.904;10.738;2023-08-06T09:12:56;22.00;53.70
74294;DHT22;64044;59.904;10.738;2023-08-06T09:15:26;22.00;53.70
74294;DHT22;64044;59.904;10.738;2023-08-06T09:17:53;22.00;53.30
74294;DHT22;64044;59.904;10.738;2023-08-06T09:20:19;22.10;53.40
74294;DHT22;64044;59.904;10.738;2023-08-06T09:22:45;22.10;53.20
74294;DHT22;64044;59.904;10.738;2023-08-06T09:25:24;22.20;53.20
74294;DHT22;64044;59.904;10.738;2023-08-06T09:27:51;22.20;52.20
74294;DHT22;64044;59.904;10.738;2023-08-06T09:30:31;22.30;52.90
74294;DHT22;64044;59.904;10.738;2023-08-06T09:32:57;22.40;51.90
74294;DHT22;64044;59.904;10.738;2023-08-06T09:35:23;22.50;52.40
74294;DHT22;64044;59.904;10.738;2023-08-06T09:37:48;22.60;52.30
74294;DHT22;64044;59.904;10.738;2023-08-06T09:40:33;22.60;51.90
74294;DHT22;64044;59.904;10.738;2023-08-06T09:42:59;22.80;50.40
74294;DHT22;64044;59.904;10.738;2023-08-06T09:45:30;22.80;50.30
74294;DHT22;64044;59.904;10.738;2023-08-06T09:47:58;22.90;49.60
74294;DHT22;64044;59.904;10.738;2023-08-06T09:50:29;23.00;50.00
74294;DHT22;64044;59.904;10.738;2023-08-06T09:52:56;23.10;50.50
74294;DHT22;64044;59.904;10.738;2023-08-06T09:55:23;23.20;50.10
74294;DHT22;64044;59.904;10.738;2023-08-06T09:57:51;23.30;49.90
74294;DHT22;64044;59.904;10.738;2023-08-06T10:00:17;23.40;49.80
74294;DHT22;64044;59.904;10.738;2023-08-06T10:02:43;23.50;49.40
74294;DHT22;64044;59.904;10.738;2023-08-06T10:05:10;23.60;49.20
74294;DHT22;64044;59.904;10.738;2023-08-06T10:07:36;23.60;49.30
74294;DHT22;64044;59.904;10.738;2023-08-06T10:10:05;23.80;48.90
74294;DHT22;64044;59.904;10.738;2023-08-06T10:12:37;23.80;48.90
74294;DHT22;64044;59.904;10.738;2023-08-06T10:15:09;24.00;48.30
74294;DHT22;64044;59.904;10.738;2023-08-06T10:17:37;24.10;47.70
74294;DHT22;64044;59.904;10.738;2023-08-06T10:20:05;24.20;48.20
74294;DHT22;64044;59.904;10.738;2023-08-06T10:22:33;24.30;47.70
74294;DHT22;64044;59.904;10.738;2023-08-06T10:25:00;24.30;47.50
74294;DHT22;64044;59.904;10.738;2023-08-06T10:30:31;24.50;47.40
74294;DHT22;64044;59.904;10.738;2023-08-06T10:32:58;24.50;46.20
74294;DHT22;64044;59.904;10.738;2023-08-06T10:38:21;24.70;46.30
74294;DHT22;64044;59.904;10.738;2023-08-06T10:41:01;24.80;45.20
74294;DHT22;64044;59.904;10.738;2023-08-06T10:43:35;24.90;44.90
74294;DHT22;64044;59.904;10.738;2023-08-06T10:46:09;25.00;44.90
74294;DHT22;64044;59.904;10.738;2023-08-06T10:48:39;25.00;45.00
74294;DHT22;64044;59.904;10.738;2023-08-06T10:51:12;25.10;45.20
74294;DHT22;64044;59.904;10.738;2023-08-06T10:53:42;25.20;44.20
74294;DHT22;64044;59.904;10.738;2023-08-06T10:56:16;25.20;43.70
74294;DHT22;64044;59.904;10.738;2023-08-06T10:58:43;25.30;43.30
74294;DHT22;64044;59.904;10.738;2023-08-06T11:01:09;25.30;43.70
74294;DHT22;64044;59.904;10.738;2023-08-06T11:03:36;25.40;44.40
74294;DHT22;64044;59.904;10.738;2023-08-06T11:06:02;25.40;44.50
74294;DHT22;64044;59.904;10.738;2023-08-06T11:08:30;25.40;44.40
74294;DHT22;64044;59.904;10.738;2023-08-06T11:11:14;25.50;44.20
74294;DHT22;64044;59.904;10.738;2023-08-06T11:13:44;25.50;43.50
74294;DHT22;64044;59.904;10.738;2023-08-06T11:16:15;25.60;43.80
74294;DHT22;64044;59.904;10.738;2023-08-06T11:18:42;25.50;43.60
74294;DHT22;64044;59.904;10.738;2023-08-06T11:21:08;25.60;43.50
74294;DHT22;64044;59.904;10.738;2023-08-06T11:23:34;25.70;43.20
74294;DHT22;64044;59.904;10.738;2023-08-06T11:26:00;25.70;42.90
74294;DHT22;64044;59.904;10.738;2023-08-06T11:28:26;25.70;43.10
74294;DHT22;64044;59.904;10.738;2023-08-06T11:30:53;25.80;43.10
74294;DHT22;64044;59.904;10.738;2023-08-06T11:35:48;26.00;42.40
74294;DHT22;64044;59.904;10.738;2023-08-06T11:38:14;26.20;42.80
74294;DHT22;64044;59.904;10.738;2023-08-06T11:40:43;26.20;42.10
74294;DHT22;64044;59.904;10.738;2023-08-06T11:43:09;26.30;42.20
74294;DHT22;64044;59.904;10.738;2023-08-06T11:45:35;26.40;42.10
74294;DHT22;64044;59.904;10.738;2023-08-06T11:48:01;26.40;42.00
74294;DHT22;64044;59.904;10.738;2023-08-06T11:50:28;26.40;41.80
74294;DHT22;64044;59.904;10.738;2023-08-06T11:52:58;26.50;41.60
74294;DHT22;64044;59.904;10.738;2023-08-06T11:55:25;26.50;40.90
74294;DHT22;64044;59.904;10.738;2023-08-06T11:57:51;26.60;40.90
74294;DHT22;64044;59.904;10.738;2023-08-06T12:00:17;26.50;40.80
74294;DHT22;64044;59.904;10.738;2023-08-06T12:02:48;26.60;40.80
74294;DHT22;64044;59.904;10.738;2023-08-06T12:05:22;26.60;40.90
74294;DHT22;64044;59.904;10.738;2023-08-06T12:07:58;26.60;40.20
74294;DHT22;64044;59.904;10.738;2023-08-06T12:10:29;26.70;40.20
74294;DHT22;64044;59.904;10.738;2023-08-06T12:12:55;26.80;40.60
74294;DHT22;64044;59.904;10.738;2023-08-06T12:15:21;26.80;40.90
74294;DHT22;64044;59.904;10.738;2023-08-06T12:17:47;26.90;40.60
74294;DHT22;64044;59.904;10.738;2023-08-06T12:20:13;27.00;40.70
74294;DHT22;64044;59.904;10.738;2023-08-06T12:22:39;27.10;40.20
74294;DHT22;64044;59.904;10.738;2023-08-06T12:25:10;27.20;40.20
74294;DHT22;64044;59.904;10.738;2023-08-06T12:27:44;27.30;39.70
74294;DHT22;64044;59.904;10.738;2023-08-06T12:30:12;27.30;39.30
74294;DHT22;64044;59.904;10.738;2023-08-06T12:32:38;27.40;39.70
74294;DHT22;64044;59.904;10.738;2023-08-06T12:35:04;27.40;39.40
74294;DHT22;64044;59.904;10.738;2023-08-06T12:37:32;27.40;39.00
74294;DHT22;64044;59.904;10.738;2023-08-06T12:39:58;27.40;38.90
74294;DHT22;64044;59.904;10.738;2023-08-06T12:42:24;27.40;39.00
74294;DHT22;64044;59.904;10.738;2023-08-06T12:44:50;27.30;39.00
74294;DHT22;64044;59.904;10.738;2023-08-06T12:47:16;27.20;39.10
74294;DHT22;64044;59.904;10.738;2023-08-06T12:49:42;27.20;39.50
74294;DHT22;64044;59.904;10.738;2023-08-06T12:52:08;27.20;39.50
74294;DHT22;64044;59.904;10.738;2023-08-06T12:54:35;27.10;39.70
74294;DHT22;64044;59.904;10.738;2023-08-06T12:57:04;27.10;40.00
74294;DHT22;64044;59.904;10.738;2023-08-06T12:59:30;27.00;39.70
74294;DHT22;64044;59.904;10.738;2023-08-06T13:01:56;27.00;39.70
74294;DHT22;64044;59.904;10.738;2023-08-06T13:04:22;27.00;39.70
74294;DHT22;64044;59.904;10.738;2023-08-06T13:06:47;26.90;40.00
74294;DHT22;64044;59.904;10.738;2023-08-06T13:09:15;26.90;40.10
74294;DHT22;64044;59.904;10.738;2023-08-06T13:11:41;27.00;40.00
74294;DHT22;64044;59.904;10.738;2023-08-06T13:14:09;27.00;40.10
74294;DHT22;64044;59.904;10.738;2023-08-06T13:16:36;27.00;40.10
74294;DHT22;64044;59.904;10.738;2023-08-06T13:19:03;27.00;40.10
74294;DHT22;64044;59.904;10.738;2023-08-06T13:21:58;27.00;39.90
74294;DHT22;64044;59.904;10.738;2023-08-06T13:24:21;26.90;39.80
74294;DHT22;64044;59.904;10.738;2023-08-06T13:26:47;26.90;40.00
74294;DHT22;64044;59.904;10.738;2023-08-06T13:29:13;26.90;40.00
74294;DHT22;64044;59.904;10.738;2023-08-06T13:31:38;26.80;39.90
74294;DHT22;64044;59.904;10.738;2023-08-06T13:34:04;26.70;40.10
74294;DHT22;64044;59.904;10.738;2023-08-06T13:36:30;26.70;40.20
74294;DHT22;64044;59.904;10.738;2023-08-06T13:38:56;26.60;40.20
74294;DHT22;64044;59.904;10.738;2023-08-06T13:41:23;26.50;40.30
74294;DHT22;64044;59.904;10.738;2023-08-06T13:43:49;26.50;40.30
74294;DHT22;64044;59.904;10.738;2023-08-06T13:46:15;26.40;40.50
74294;DHT22;64044;59.904;10.738;2023-08-06T13:48:46;26.30;40.60
74294;DHT22;64044;59.904;10.738;2023-08-06T13:51:13;26.20;41.30
74294;DHT22;64044;59.904;10.738;2023-08-06T13:53:39;26.20;40.90
74294;DHT22;64044;59.904;10.738;2023-08-06T13:56:05;26.10;41.10
74294;DHT22;64044;59.904;10.738;2023-08-06T13:58:32;26.10;41.30
74294;DHT22;64044;59.904;10.738;2023-08-06T14:00:57;26.00;41.40
74294;DHT22;64044;59.904;10.738;2023-08-06T14:03:23;26.00;41.60
74294;DHT22;64044;59.904;10.738;2023-08-06T14:05:49;25.90;41.60
74294;DHT22;64044;59.904;10.738;2023-08-06T14:08:15;25.90;41.70
74294;DHT22;64044;59.904;10.738;2023-08-06T14:10:44;25.80;41.90
74294;DHT22;64044;59.904;10.738;2023-08-06T14:13:09;25.70;42.00
74294;DHT22;64044;59.904;10.738;2023-08-06T14:15:35;25.70;42.00
74294;DHT22;64044;59.904;10.738;2023-08-06T14:18:02;25.70;42.20
74294;DHT22;64044;59.904;10.738;2023-08-06T14:20:28;25.60;42.40
74294;DHT22;64044;59.904;10.738;2023-08-06T14:22:54;25.60;42.50
74294;DHT22;64044;59.904;10.738;2023-08-06T14:25:19;25.50;42.70
74294;DHT22;64044;59.904;10.738;2023-08-06T14:27:45;25.50;42.80
74294;DHT22;64044;59.904;10.738;2023-08-06T14:30:11;25.40;42.80
74294;DHT22;64044;59.904;10.738;2023-08-06T14:32:37;25.40;43.00
74294;DHT22;64044;59.904;10.738;2023-08-06T14:35:03;25.30;43.30
74294;DHT22;64044;59.904;10.738;2023-08-06T14:37:28;25.20;43.40
74294;DHT22;64044;59.904;10.738;2023-08-06T14:39:54;25.10;43.30
74294;DHT22;64044;59.904;10.738;2023-08-06T14:42:20;25.10;43.60
74294;DHT22;64044;59.904;10.738;2023-08-06T14:44:46;25.00;43.80
74294;DHT22;64044;59.904;10.738;2023-08-06T14:47:11;25.00;44.00
74294;DHT22;64044;59.904;10.738;2023-08-06T14:49:38;25.00;44.10
74294;DHT22;64044;59.904;10.738;2023-08-06T14:52:04;24.90;44.10
74294;DHT22;64044;59.904;10.738;2023-08-06T14:54:30;24.80;44.20
74294;DHT22;64044;59.904;10.738;2023-08-06T14:56:56;24.80;44.50
74294;DHT22;64044;59.904;10.738;2023-08-06T14:59:22;24.70;44.70
74294;DHT22;64044;59.904;10.738;2023-08-06T15:01:48;24.60;44.80
74294;DHT22;64044;59.904;10.738;2023-08-06T15:04:13;24.60;44.90
74294;DHT22;64044;59.904;10.738;2023-08-06T15:06:39;24.60;45.00
74294;DHT22;64044;59.904;10.738;2023-08-06T15:09:05;24.50;45.20
74294;DHT22;64044;59.904;10.738;2023-08-06T15:11:31;24.50;45.40
74294;DHT22;64044;59.904;10.738;2023-08-06T15:13:56;24.50;45.60
74294;DHT22;64044;59.904;10.738;2023-08-06T15:16:22;24.50;45.70
74294;DHT22;64044;59.904;10.738;2023-08-06T15:18:47;24.40;45.80
74294;DHT22;64044;59.904;10.738;2023-08-06T15:21:14;24.40;45.90
74294;DHT22;64044;59.904;10.738;2023-08-06T15:23:40;24.40;45.90
74294;DHT22;64044;59.904;10.738;2023-08-06T15:26:06;24.30;46.00
74294;DHT22;64044;59.904;10.738;2023-08-06T15:28:31;24.30;46.10
74294;DHT22;64044;59.904;10.738;2023-08-06T15:30:57;24.30;46.30